createdAt,value
2022-11-25T00:01:22.824Z,98671.75
2022-11-25T00:03:50.902Z,98701.66
2022-11-25T00:06:25.384Z,98704.44
2022-11-25T00:08:56.463Z,98712.31
2022-11-25T00:11:23.391Z,98716.53
2022-11-25T00:13:51.208Z,98716.13
2022-11-25T00:16:21.034Z,98719.63
2022-11-25T00:18:49.581Z,98726.19
2022-11-25T00:21:22.138Z,98717.59
2022-11-25T00:23:57.370Z,98726.19
2022-11-25T00:26:26.008Z,98725.50
2022-11-25T00:28:53.559Z,98724.88
2022-11-25T00:31:23.406Z,98733.38
2022-11-25T00:33:51.349Z,98720.91
2022-11-25T00:36:31.369Z,98742.72
2022-11-25T00:39:04.310Z,98749.19
2022-11-25T00:41:50.451Z,98755.28
2022-11-25T00:44:38.979Z,98765.69
2022-11-25T00:47:17.689Z,98753.47
2022-11-25T00:49:46.975Z,98775.50
2022-11-25T00:52:18.935Z,98774.78
2022-11-25T00:54:47.901Z,98778.16
2022-11-25T00:57:16.161Z,98773.81
2022-11-25T00:59:42.991Z,98788.66
2022-11-25T01:02:10.938Z,98779.81
2022-11-25T01:04:38.271Z,98804.47
2022-11-25T01:07:06.084Z,98785.06
2022-11-25T01:09:33.103Z,98801.72
2022-11-25T01:11:59.971Z,98804.34
2022-11-25T01:14:27.078Z,98810.44
2022-11-25T01:16:54.023Z,98814.28
2022-11-25T01:19:21.359Z,98814.16
2022-11-25T01:21:48.275Z,98828.16
2022-11-25T01:24:16.721Z,98835.34
2022-11-25T01:26:45.144Z,98820.22
2022-11-25T01:29:17.893Z,98856.63
2022-11-25T01:31:46.209Z,98863.56
2022-11-25T01:34:25.191Z,98866.31
2022-11-25T01:36:52.093Z,98859.22
2022-11-25T01:39:28.607Z,98887.59
2022-11-25T01:41:58.800Z,98892.84
2022-11-25T01:44:29.005Z,98892.13
2022-11-25T01:47:05.143Z,98879.81
2022-11-25T01:49:55.144Z,98889.50
2022-11-25T01:52:43.024Z,98906.38
2022-11-25T01:55:12.806Z,98906.47
2022-11-25T01:57:47.905Z,98911.63
2022-11-25T02:00:15.673Z,98920.47
2022-11-25T02:02:43.294Z,98917.63
2022-11-25T02:05:15.248Z,98923.94
2022-11-25T02:07:46.478Z,98913.97
2022-11-25T02:10:16.714Z,98932.69
2022-11-25T02:12:45.874Z,98939.88
2022-11-25T02:15:14.428Z,98928.19
2022-11-25T02:17:42.511Z,98949.53
2022-11-25T02:20:12.412Z,98951.19
2022-11-25T02:22:59.353Z,98935.13
2022-11-25T02:25:29.776Z,98959.09
2022-11-25T02:28:05.099Z,98975.00
2022-11-25T02:30:32.788Z,98961.56
2022-11-25T02:33:00.528Z,98984.59
2022-11-25T02:35:28.922Z,98995.13
2022-11-25T02:38:00.231Z,98996.06
2022-11-25T02:40:29.267Z,99001.22
2022-11-25T02:42:59.966Z,99009.13
2022-11-25T02:45:37.368Z,99000.09
2022-11-25T02:48:04.496Z,99015.78
2022-11-25T02:50:31.355Z,99037.97
2022-11-25T02:52:58.247Z,99019.25
2022-11-25T02:55:25.063Z,99037.97
2022-11-25T02:57:51.940Z,99029.78
2022-11-25T03:00:19.239Z,99043.44
2022-11-25T03:02:46.141Z,99057.97
2022-11-25T03:05:13.500Z,99062.38
2022-11-25T03:07:40.478Z,99067.66
2022-11-25T03:10:07.614Z,99074.63
2022-11-25T03:12:34.436Z,99084.19
2022-11-25T03:15:01.289Z,99090.16
2022-11-25T03:17:28.880Z,99084.09
2022-11-25T03:19:56.023Z,99086.72
2022-11-25T03:22:23.006Z,99096.28
2022-11-25T03:24:49.928Z,99107.66
2022-11-25T03:27:16.894Z,99118.19
2022-11-25T03:29:44.228Z,99112.06
2022-11-25T03:32:11.045Z,99115.47
2022-11-25T03:34:38.050Z,99119.88
2022-11-25T03:37:05.125Z,99113.66
2022-11-25T03:39:31.989Z,99105.44
2022-11-25T03:41:58.826Z,99119.75
2022-11-25T03:44:25.785Z,99131.88
2022-11-25T03:46:52.904Z,99137.13
2022-11-25T03:49:19.785Z,99142.41
2022-11-25T03:51:46.587Z,99159.88
2022-11-25T03:54:13.371Z,99173.06
2022-11-25T03:56:40.463Z,99167.47
2022-11-25T03:59:07.272Z,99180.75
2022-11-25T04:01:34.171Z,99170.84
2022-11-25T04:04:01.423Z,99195.69
2022-11-25T04:06:28.246Z,99208.75
2022-11-25T04:08:55.101Z,99202.66
2022-11-25T04:11:21.888Z,99207.06
2022-11-25T04:13:48.661Z,99214.00
2022-11-25T04:16:23.901Z,99213.06
2022-11-25T04:18:51.146Z,99218.97
2022-11-25T04:21:17.993Z,99246.38
2022-11-25T04:23:44.813Z,99237.19
2022-11-25T04:26:11.668Z,99239.81
2022-11-25T04:28:38.472Z,99262.03
2022-11-25T04:31:09.348Z,99270.78
2022-11-25T04:33:36.227Z,99275.09
2022-11-25T04:36:03.400Z,99275.09
2022-11-25T04:38:30.488Z,99290.91
2022-11-25T04:40:57.303Z,99289.97
2022-11-25T04:43:24.161Z,99292.59
2022-11-25T04:46:12.933Z,99286.16
2022-11-25T04:48:38.028Z,99296.94
2022-11-25T04:51:04.879Z,99300.38
2022-11-25T04:53:31.722Z,99312.72
2022-11-25T04:55:58.508Z,99328.53
2022-11-25T04:58:44.048Z,99333.69
2022-11-25T05:01:10.937Z,99338.94
2022-11-25T05:03:37.819Z,99340.00
2022-11-25T05:06:09.132Z,99348.22
2022-11-25T05:08:36.590Z,99365.19
2022-11-25T05:11:03.435Z,99365.94
2022-11-25T05:13:30.218Z,99358.97
2022-11-25T05:16:00.397Z,99365.06
2022-11-25T05:18:27.219Z,99369.50
2022-11-25T05:20:54.020Z,99381.72
2022-11-25T05:23:20.999Z,99382.59
2022-11-25T05:25:47.839Z,99368.03
2022-11-25T05:28:14.612Z,99374.56
2022-11-25T05:30:42.691Z,99390.38
2022-11-25T05:33:09.472Z,99394.69
2022-11-25T05:35:36.423Z,99394.69
2022-11-25T05:38:04.510Z,99401.63
2022-11-25T05:40:31.899Z,99396.38
2022-11-25T05:43:02.094Z,99395.19
2022-11-25T05:45:28.960Z,99428.75
2022-11-25T05:47:55.794Z,99438.44
2022-11-25T05:50:22.858Z,99417.94
2022-11-25T05:52:49.681Z,99440.09
2022-11-25T05:55:16.492Z,99426.59
2022-11-25T05:57:43.368Z,99463.72
2022-11-25T06:00:10.758Z,99463.72
2022-11-25T06:02:37.695Z,99460.13
2022-11-25T06:05:04.866Z,99481.19
2022-11-25T06:07:31.836Z,99483.81
2022-11-25T06:10:02.816Z,99478.56
2022-11-25T06:12:30.228Z,99464.44
2022-11-25T06:14:57.057Z,99459.06
2022-11-25T06:17:23.854Z,99455.63
2022-11-25T06:19:50.694Z,99473.22
2022-11-25T06:22:17.563Z,99466.97
2022-11-25T06:24:46.517Z,99459.91
2022-11-25T06:27:15.788Z,99470.47
2022-11-25T06:29:42.618Z,99465.19
2022-11-25T06:32:09.441Z,99469.59
2022-11-25T06:34:36.937Z,99470.47
2022-11-25T06:37:04.068Z,99488.91
2022-11-25T06:39:30.881Z,99494.16
2022-11-25T06:41:57.741Z,99503.78
2022-11-25T06:44:24.747Z,99504.63
2022-11-25T06:46:51.745Z,99510.72
2022-11-25T06:49:18.816Z,99501.53
2022-11-25T06:51:45.767Z,99518.63
2022-11-25T06:54:12.611Z,99521.25
2022-11-25T06:56:39.701Z,99524.72
2022-11-25T06:59:07.607Z,99537.06
2022-11-25T07:01:35.016Z,99545.91
2022-11-25T07:04:05.878Z,99544.13
2022-11-25T07:06:33.799Z,99554.69
2022-11-25T07:09:01.054Z,99566.03
2022-11-25T07:11:40.446Z,99559.84
2022-11-25T07:14:11.929Z,99561.63
2022-11-25T07:16:44.209Z,99567.66
2022-11-25T07:19:13.193Z,99565.94
2022-11-25T07:21:40.706Z,99572.94
2022-11-25T07:24:08.582Z,99569.44
2022-11-25T07:26:38.607Z,99564.84
2022-11-25T07:29:23.534Z,99570.97
2022-11-25T07:31:56.052Z,99599.28
2022-11-25T07:34:23.483Z,99610.81
2022-11-25T07:36:51.070Z,99610.81
2022-11-25T07:39:23.301Z,99613.44
2022-11-25T07:41:51.938Z,99613.38
2022-11-25T07:44:20.102Z,99614.41
2022-11-25T07:46:49.396Z,99610.00
2022-11-25T07:49:19.217Z,99616.94
2022-11-25T07:51:51.570Z,99617.78
2022-11-25T07:54:18.548Z,99614.31
2022-11-25T07:56:46.119Z,99627.47
2022-11-25T07:59:15.852Z,99634.53
2022-11-25T08:01:43.544Z,99642.44
2022-11-25T08:04:18.099Z,99644.25
2022-11-25T08:06:48.531Z,99654.78
2022-11-25T08:09:19.558Z,99643.03
2022-11-25T08:11:47.850Z,99662.88
2022-11-25T08:14:15.721Z,99660.53
2022-11-25T08:16:42.816Z,99679.31
2022-11-25T08:19:14.082Z,99680.16
2022-11-25T08:21:41.815Z,99679.31
2022-11-25T08:24:13.507Z,99668.78
2022-11-25T08:26:40.368Z,99658.84
2022-11-25T08:29:07.718Z,99680.16
2022-11-25T08:31:38.067Z,99666.44
2022-11-25T08:34:06.976Z,99673.13
2022-11-25T08:36:34.971Z,99672.38
2022-11-25T08:39:22.628Z,99674.91
2022-11-25T08:41:52.934Z,99682.91
2022-11-25T08:44:19.929Z,99674.03
2022-11-25T08:46:47.131Z,99669.75
2022-11-25T08:49:17.056Z,99668.03
2022-11-25T08:51:43.961Z,99684.59
2022-11-25T08:54:10.885Z,99680.16
2022-11-25T08:56:37.738Z,99687.31
2022-11-25T08:59:05.484Z,99690.69
2022-11-25T09:01:33.106Z,99696.94
2022-11-25T09:04:00.639Z,99699.47
2022-11-25T09:06:28.998Z,99707.38
2022-11-25T09:08:58.699Z,99708.28
2022-11-25T09:11:26.525Z,99709.25
2022-11-25T09:13:53.786Z,99710.09
2022-11-25T09:16:21.648Z,99707.38
2022-11-25T09:18:53.990Z,99699.47
2022-11-25T09:21:25.425Z,99703.81
2022-11-25T09:23:54.490Z,99697.75
2022-11-25T09:26:37.069Z,99695.13
2022-11-25T09:29:04.622Z,99709.06
2022-11-25T09:31:31.922Z,99709.06
2022-11-25T09:33:59.251Z,99711.69
2022-11-25T09:36:26.477Z,99698.34
2022-11-25T09:38:53.657Z,99708.22
2022-11-25T09:42:37.551Z,99711.69
2022-11-25T09:45:48.974Z,99715.25
2022-11-25T09:48:40.947Z,99729.38
2022-11-25T09:51:22.149Z,99743.31
2022-11-25T09:53:56.046Z,99746.81
2022-11-25T09:56:42.509Z,99742.53
2022-11-25T09:59:19.186Z,99741.63
2022-11-25T10:01:51.130Z,99735.41
2022-11-25T10:04:41.615Z,99738.13
2022-11-25T10:07:18.764Z,99731.19
2022-11-25T10:09:45.841Z,99749.53
2022-11-25T10:12:25.568Z,99751.22
2022-11-25T10:14:59.335Z,99738.72
2022-11-25T10:17:50.494Z,99757.34
2022-11-25T10:20:28.983Z,99774.09
2022-11-25T10:23:03.800Z,99777.56
2022-11-25T10:25:36.369Z,99770.22
2022-11-25T10:28:19.894Z,99792.53
2022-11-25T10:30:46.964Z,99801.28
2022-11-25T10:33:29.572Z,99788.66
2022-11-25T10:36:01.716Z,99788.09
2022-11-25T10:38:53.811Z,99801.34
2022-11-25T10:41:24.255Z,99787.63
2022-11-25T10:43:51.655Z,99794.22
2022-11-25T10:46:38.166Z,99783.94
2022-11-25T10:49:27.817Z,99798.66
2022-11-25T10:51:57.713Z,99799.50
2022-11-25T10:54:39.424Z,99798.66
2022-11-25T10:57:32.679Z,99795.06
2022-11-25T11:00:01.911Z,99787.16
2022-11-25T11:02:40.482Z,99799.50
2022-11-25T11:05:10.324Z,99796.09
2022-11-25T11:07:44.169Z,99807.28
2022-11-25T11:10:20.190Z,99792.34
2022-11-25T11:13:04.459Z,99785.38
2022-11-25T11:15:44.634Z,99795.91
2022-11-25T11:18:24.068Z,99791.50
2022-11-25T11:20:54.905Z,99808.16
2022-11-25T11:23:22.535Z,99803.72
2022-11-25T11:26:00.600Z,99805.50
2022-11-25T11:28:41.572Z,99816.91
2022-11-25T11:31:29.639Z,99831.00
2022-11-25T11:34:08.287Z,99823.97
2022-11-25T11:36:37.785Z,99820.09
2022-11-25T11:39:33.262Z,99830.16
2022-11-25T11:42:31.934Z,99828.38
2022-11-25T11:45:25.180Z,99823.09
2022-11-25T11:48:04.577Z,99808.69
2022-11-25T11:50:40.409Z,99824.72
2022-11-25T11:53:23.909Z,99820.84
2022-11-25T11:56:33.630Z,99852.66
2022-11-25T11:59:05.698Z,99842.47
2022-11-25T12:01:54.069Z,99849.91
2022-11-25T12:04:50.083Z,99838.91
2022-11-25T12:07:55.355Z,99861.13
2022-11-25T12:10:25.027Z,99863.69
2022-11-25T12:13:08.014Z,99885.59
2022-11-25T12:15:41.840Z,99904.03
2022-11-25T12:18:20.877Z,99886.16
2022-11-25T12:20:55.595Z,99895.22
2022-11-25T12:23:58.437Z,99918.66
2022-11-25T12:26:33.669Z,99901.22
2022-11-25T12:29:12.527Z,99922.13
2022-11-25T12:31:48.903Z,99907.06
2022-11-25T12:34:46.663Z,99917.59
2022-11-25T12:37:29.422Z,99951.22
2022-11-25T12:40:15.329Z,99934.56
2022-11-25T12:42:44.256Z,99944.34
2022-11-25T12:45:19.213Z,99960.91
2022-11-25T12:47:46.562Z,99967.13
2022-11-25T12:50:41.309Z,99967.97
2022-11-25T12:53:09.309Z,99977.47
2022-11-25T12:55:39.701Z,99982.75
2022-11-25T12:58:30.798Z,99981.81
2022-11-25T13:01:03.718Z,99964.66
2022-11-25T13:03:52.489Z,99979.53
2022-11-25T13:06:47.681Z,100006.28
2022-11-25T13:09:23.586Z,100028.41
2022-11-25T13:12:01.197Z,100004.28
2022-11-25T13:14:53.069Z,100024.84
2022-11-25T13:17:21.977Z,100039.81
2022-11-25T13:19:49.351Z,100022.97
2022-11-25T13:22:22.725Z,100016.34
2022-11-25T13:24:50.423Z,100035.88
2022-11-25T13:27:29.696Z,100029.50
2022-11-25T13:29:56.827Z,100029.75
2022-11-25T13:32:34.119Z,100040.97
2022-11-25T13:35:22.763Z,100036.78
2022-11-25T13:37:51.044Z,100052.59
2022-11-25T13:40:23.912Z,100049.97
2022-11-25T13:42:52.398Z,100039.13
2022-11-25T13:45:39.356Z,100057.13
2022-11-25T13:48:20.067Z,100063.25
2022-11-25T13:51:10.143Z,100067.59
2022-11-25T13:53:38.252Z,100067.59
2022-11-25T13:56:27.232Z,100078.03
2022-11-25T13:59:14.479Z,100077.88
2022-11-25T14:01:47.760Z,100082.22
2022-11-25T14:04:18.581Z,100094.53
2022-11-25T14:07:04.458Z,100103.22
2022-11-25T14:09:47.283Z,100088.88
2022-11-25T14:12:47.331Z,100126.06
2022-11-25T14:15:30.757Z,100125.31
2022-11-25T14:19:11.880Z,100141.31
2022-11-25T14:21:21.630Z,100151.69
2022-11-25T14:24:04.137Z,100153.56
2022-11-25T14:26:49.240Z,100157.13
2022-11-25T14:29:37.961Z,100146.59
2022-11-25T14:32:15.187Z,100148.28
2022-11-25T14:34:53.399Z,100146.59
2022-11-25T14:37:33.608Z,100153.56
2022-11-25T14:40:08.097Z,100153.56
2022-11-25T14:42:41.831Z,100163.16
2022-11-25T14:45:30.164Z,100145.91
2022-11-25T14:47:57.642Z,100169.38
2022-11-25T14:50:40.840Z,100178.31
2022-11-25T14:53:12.274Z,100194.94
2022-11-25T14:55:39.298Z,100202.03
2022-11-25T14:58:06.268Z,100188.94
2022-11-25T15:00:33.246Z,100177.53
2022-11-25T15:03:06.744Z,100160.47
2022-11-25T15:05:39.414Z,100183.66
2022-11-25T15:08:16.270Z,100198.53
2022-11-25T15:10:52.154Z,100210.88
2022-11-25T15:13:32.519Z,100219.81
2022-11-25T15:16:15.227Z,100227.72
2022-11-25T15:18:48.164Z,100232.13
2022-11-25T15:21:17.702Z,100241.75
2022-11-25T15:23:44.841Z,100250.50
2022-11-25T15:26:24.360Z,100251.44
2022-11-25T15:28:57.205Z,100256.81
2022-11-25T15:31:31.067Z,100270.81
2022-11-25T15:34:02.270Z,100265.63
2022-11-25T15:36:29.615Z,100287.56
2022-11-25T15:39:16.153Z,100276.59
2022-11-25T15:41:45.697Z,100283.81
2022-11-25T15:44:23.217Z,100289.94
2022-11-25T15:46:58.136Z,100300.91
2022-11-25T15:49:25.348Z,100300.06
2022-11-25T15:52:05.336Z,100293.00
2022-11-25T15:54:38.511Z,100310.53
2022-11-25T15:57:15.993Z,100307.97
2022-11-25T15:59:47.680Z,100322.84
2022-11-25T16:02:35.338Z,100328.19
2022-11-25T16:05:14.636Z,100336.97
2022-11-25T16:07:50.836Z,100338.72
2022-11-25T16:10:29.615Z,100345.88
2022-11-25T16:13:21.248Z,100337.97
2022-11-25T16:15:58.278Z,100347.59
2022-11-25T16:18:40.174Z,100362.53
2022-11-25T16:21:21.349Z,100363.47
2022-11-25T16:23:52.641Z,100361.69
2022-11-25T16:26:25.336Z,100372.31
2022-11-25T16:28:55.481Z,100372.38
2022-11-25T16:31:23.035Z,100373.34
2022-11-25T16:33:53.469Z,100377.66
2022-11-25T16:36:20.649Z,100381.25
2022-11-25T16:38:52.337Z,100387.34
2022-11-25T16:41:23.022Z,100384.81
2022-11-25T16:43:50.172Z,100389.16
2022-11-25T16:46:19.406Z,100379.53
2022-11-25T16:48:47.495Z,100390.06
2022-11-25T16:51:16.255Z,100398.91
2022-11-25T16:53:45.322Z,100404.97
2022-11-25T16:56:28.170Z,100386.97
2022-11-25T16:58:56.728Z,100413.78
2022-11-25T17:01:28.175Z,100414.72
2022-11-25T17:03:55.752Z,100414.72
2022-11-25T17:06:25.692Z,100412.16
2022-11-25T17:08:53.431Z,100408.75
2022-11-25T17:11:46.653Z,100424.41
2022-11-25T17:14:21.140Z,100427.13
2022-11-25T17:16:48.255Z,100415.34
2022-11-25T17:19:17.805Z,100433.31
2022-11-25T17:21:44.954Z,100431.53
2022-11-25T17:24:21.095Z,100425.88
2022-11-25T17:26:53.854Z,100441.31
2022-11-25T17:29:25.776Z,100450.94
2022-11-25T17:31:58.132Z,100456.19
2022-11-25T17:34:25.597Z,100457.22
2022-11-25T17:36:52.554Z,100460.66
2022-11-25T17:39:19.552Z,100453.25
2022-11-25T17:41:48.904Z,100470.44
2022-11-25T17:44:24.030Z,100473.03
2022-11-25T17:46:51.500Z,100488.03
2022-11-25T17:49:18.570Z,100488.97
2022-11-25T17:51:45.602Z,100498.66
2022-11-25T17:54:13.290Z,100506.63
2022-11-25T17:56:42.297Z,100507.47
2022-11-25T17:59:20.766Z,100506.63
2022-11-25T18:01:47.997Z,100493.94
2022-11-25T18:04:32.313Z,100520.75
2022-11-25T18:06:59.452Z,100522.53
2022-11-25T18:09:26.542Z,100531.34
2022-11-25T18:11:57.072Z,100539.34
2022-11-25T18:14:32.381Z,100537.56
2022-11-25T18:17:03.960Z,100541.97
2022-11-25T18:19:31.926Z,100531.03
2022-11-25T18:22:09.807Z,100552.50
2022-11-25T18:24:37.472Z,100557.00
2022-11-25T18:27:06.615Z,100557.00
2022-11-25T18:29:37.246Z,100551.16
2022-11-25T18:32:04.455Z,100577.16
2022-11-25T18:34:31.599Z,100565.34
2022-11-25T18:36:59.064Z,100592.13
2022-11-25T18:39:26.235Z,100607.06
2022-11-25T18:41:58.394Z,100609.75
2022-11-25T18:44:29.672Z,100600.53
2022-11-25T18:46:57.219Z,100621.16
2022-11-25T18:49:24.875Z,100627.38
2022-11-25T18:51:53.496Z,100609.34
2022-11-25T18:54:22.355Z,100631.78
2022-11-25T18:56:53.730Z,100637.06
2022-11-25T18:59:30.639Z,100641.38
2022-11-25T19:02:01.347Z,100651.09
2022-11-25T19:04:29.357Z,100663.41
2022-11-25T19:06:57.297Z,100659.91
2022-11-25T19:09:24.485Z,100663.47
2022-11-25T19:11:56.161Z,100676.59
2022-11-25T19:14:34.577Z,100681.00
2022-11-25T19:17:19.378Z,100687.16
2022-11-25T19:19:49.398Z,100687.16
2022-11-25T19:22:20.287Z,100699.47
2022-11-25T19:24:48.730Z,100684.13
2022-11-25T19:27:24.523Z,100705.63
2022-11-25T19:29:53.383Z,100719.66
2022-11-25T19:32:27.550Z,100719.72
2022-11-25T19:35:09.210Z,100708.34
2022-11-25T19:37:36.645Z,100717.09
2022-11-25T19:40:13.902Z,100719.72
2022-11-25T19:42:41.254Z,100715.72
2022-11-25T19:45:14.277Z,100732.03
2022-11-25T19:47:44.198Z,100722.78
2022-11-25T19:50:21.174Z,100734.22
2022-11-25T19:52:50.443Z,100741.81
2022-11-25T19:55:23.915Z,100753.16
2022-11-25T19:57:52.009Z,100743.06
2022-11-25T20:00:21.805Z,100756.75
2022-11-25T20:02:51.857Z,100759.38
2022-11-25T20:05:29.980Z,100764.72
2022-11-25T20:07:57.618Z,100767.34
2022-11-25T20:10:32.019Z,100765.66
2022-11-25T20:13:00.547Z,100779.69
2022-11-25T20:15:28.685Z,100778.81
2022-11-25T20:18:01.472Z,100798.19
2022-11-25T20:20:34.903Z,100799.03
2022-11-25T20:23:30.476Z,100807.84
2022-11-25T20:25:57.893Z,100815.75
2022-11-25T20:28:28.743Z,100808.28
2022-11-25T20:30:56.832Z,100821.97
2022-11-25T20:33:25.097Z,100828.94
2022-11-25T20:35:59.918Z,100832.50
2022-11-25T20:38:31.607Z,100833.34
2022-11-25T20:41:00.900Z,100839.47
2022-11-25T20:43:39.530Z,100834.19
2022-11-25T20:46:14.332Z,100837.69
2022-11-25T20:48:43.422Z,100840.31
2022-11-25T20:51:20.983Z,100839.47
2022-11-25T20:53:54.698Z,100847.44
2022-11-25T20:56:25.230Z,100858.84
2022-11-25T20:58:53.417Z,100857.13
2022-11-25T21:01:28.510Z,100862.38
2022-11-25T21:03:56.760Z,100868.53
2022-11-25T21:06:28.202Z,100875.56
2022-11-25T21:08:58.806Z,100868.56
2022-11-25T21:11:28.711Z,100878.28
2022-11-25T21:13:56.414Z,100887.94
2022-11-25T21:16:24.101Z,100895.84
2022-11-25T21:18:51.978Z,100902.91
2022-11-25T21:21:32.533Z,100903.81
2022-11-25T21:24:08.250Z,100901.25
2022-11-25T21:26:36.027Z,100908.25
2022-11-25T21:29:04.094Z,100908.28
2022-11-25T21:31:31.619Z,100906.53
2022-11-25T21:34:02.970Z,100888.53
2022-11-25T21:36:31.855Z,100903.97
2022-11-25T21:39:09.480Z,100903.97
2022-11-25T21:41:37.272Z,100908.25
2022-11-25T21:44:07.328Z,100907.44
2022-11-25T21:46:34.977Z,100909.22
2022-11-25T21:49:02.176Z,100908.38
2022-11-25T21:51:29.525Z,100903.09
2022-11-25T21:53:56.897Z,100906.53
2022-11-25T21:56:31.234Z,100888.44
2022-11-25T21:59:03.264Z,100903.09
2022-11-25T22:01:31.311Z,100911.78
2022-11-25T22:03:58.934Z,100920.47
2022-11-25T22:06:29.256Z,100900.59
2022-11-25T22:08:58.052Z,100914.41
2022-11-25T22:11:32.373Z,100913.56
2022-11-25T22:14:01.899Z,100900.78
2022-11-25T22:16:32.468Z,100919.69
2022-11-25T22:19:00.251Z,100930.31
2022-11-25T22:21:27.411Z,100918.28
2022-11-25T22:23:55.202Z,100940.84
2022-11-25T22:26:35.003Z,100951.22
2022-11-25T22:29:05.019Z,100946.94
2022-11-25T22:31:32.338Z,100947.06
2022-11-25T22:33:59.977Z,100925.44
2022-11-25T22:36:36.739Z,100938.25
2022-11-25T22:39:27.441Z,100949.56
2022-11-25T22:41:57.799Z,100940.34
2022-11-25T22:44:46.593Z,100958.28
2022-11-25T22:47:16.862Z,100967.19
2022-11-25T22:49:47.964Z,100971.59
2022-11-25T22:52:22.413Z,100961.91
2022-11-25T22:54:50.736Z,100966.31
2022-11-25T22:57:18.764Z,100979.53
2022-11-25T22:59:46.541Z,100964.03
2022-11-25T23:02:22.956Z,100978.63
2022-11-25T23:04:55.873Z,100982.25
2022-11-25T23:07:24.564Z,100969.84
2022-11-25T23:09:52.588Z,100975.13
2022-11-25T23:12:20.109Z,100978.66
2022-11-25T23:14:47.044Z,100980.41
2022-11-25T23:17:22.275Z,100989.09
2022-11-25T23:19:51.016Z,100990.81
2022-11-25T23:22:18.872Z,100985.66
2022-11-25T23:24:48.033Z,100990.03
2022-11-25T23:29:57.138Z,100988.25
2022-11-25T23:32:24.135Z,100975.25
2022-11-25T23:34:51.209Z,100994.97
2022-11-25T23:37:18.586Z,100999.38
2022-11-25T23:39:52.158Z,100995.19
2022-11-25T23:42:20.247Z,100997.66
2022-11-25T23:44:47.290Z,101009.06
2022-11-25T23:47:20.814Z,101004.78
2022-11-25T23:49:50.819Z,101007.53
2022-11-25T23:52:23.577Z,101002.25
2022-11-25T23:54:52.836Z,101013.72
2022-11-25T23:57:26.773Z,101004.53
2022-11-25T23:59:54.404Z,101021.75
